Archival Weather

Snohomish County (Paine Fld)

Everett, Washington (KPAE)

Report from: Thursday, October 26, 2023 1:53 AM PDT
Current time: Friday, June 14, 2024 4:26 AM PDT

Current weather – Weather history – Daily summaries
Weather forecast

Temperature2.2°C (36.0°F)
Dew point-1.7°C (28.9°F)
Winds Calm
Visibility10 mi. (16.1 km)
Clouds Sky clear
Altimeter30.11 in.Hg (1020 mB)
Relative humidity75 %
Density altitude-1,700 ft. (-518 m)
Sea-level pressure102.0 kPa (1020 mB, 30.12 in.Hg)
Remarks Fully automated report
Automated weather observing station with precipitation discriminator
Pressure rising more quickly
Flight conditions Visual Meteorological Conditions
Raw dataKPAE 260853Z AUTO 00000KT 10SM CLR 02/M02 A3011 RMK AO2 SLP199 T00221017 53014
An error has occurred. This application may no longer respond until reloaded. Reload 🗙